Aviation Digital Data Service (ADDS)

Output produced by METARs form (1844 UTC 06 May 2016)
found at http://aviationweather.gov/adds/metars/
 
KARA 061753Z 35008KT 10SM CLR 25/08 A3009 RMK AO2 SLP190 T02500083 10250 20139 58003 $